Federal Rideau — VRWG7 — position and weather

sailwx.info

Track history (hours):
 
Tides and Currents Weather Stations Pressure Air Temp Water Temp Dewpoint Dewpoint Depression Visibility Wind Speed Wind Dir Waves Ship Positions

Federal Rideau

Last reported at 2014-Dec-20 09:09 UTC. Time now 2014-Dec-23 05:08 UTC.
Position N 39°27' W 023°41'.

Length 200 m; draft 9.5 m.

Type: Cargo ship. MMSI: 477734000.

Date/timePositionNaut miles runAvg speedWind from/ knotsBaromVisibWave heightAir tempDewpointWater temp
2014-Dec-20 09:09N 39°27' W 023°41'3411.2
2014-Dec-20 06:06N 39°35' W 024°24'11811.1
2014-Dec-19 19:28N 40°04' W 026°54'4611.6
2014-Dec-19 15:34N 40°14' W 027°52'1211.6
2014-Dec-19 14:30N 40°18' W 028°08'1211.6
2014-Dec-19 13:30N 40°20' W 028°22'1111.5
2014-Dec-19 12:33N 40°23' W 028°36'1311.8
2014-Dec-19 11:26N 40°27' W 028°53'1211.5
2014-Dec-19 10:21N 40°30' W 029°09'1211.9
2014-Dec-19 09:21N 40°32' W 029°24'4311.0
2014-Dec-19 05:28N 40°43' W 030°19'  
2014-Dec-10 21:32N 46°32' W 072°12'1211.8
2014-Dec-10 20:33N 46°24' W 072°24'1010.1
2014-Dec-10 19:33N 46°17' W 072°36'1110.8
2014-Dec-10 18:33N 46°13' W 072°50'  
Track history (hours):
 
Tides and Currents Weather Stations Pressure Air Temp Water Temp Dewpoint Dewpoint Depression Visibility Wind Speed Wind Dir Waves Ship Positions

Federal Rideau

Last reported at 2014-Dec-20 09:09 UTC. Time now 2014-Dec-23 05:08 UTC.
Position N 39°27' W 023°41'.

Length 200 m; draft 9.5 m.

Type: Cargo ship. MMSI: 477734000.

Date/timePositionNaut miles runAvg speedWind from/ knotsBaromVisibWave heightAir tempDewpointWater temp
2014-Dec-20 09:09N 39°27' W 023°41'3411.2
2014-Dec-20 06:06N 39°35' W 024°24'11811.1
2014-Dec-19 19:28N 40°04' W 026°54'4611.6
2014-Dec-19 15:34N 40°14' W 027°52'1211.6
2014-Dec-19 14:30N 40°18' W 028°08'1211.6
2014-Dec-19 13:30N 40°20' W 028°22'1111.5
2014-Dec-19 12:33N 40°23' W 028°36'1311.8
2014-Dec-19 11:26N 40°27' W 028°53'1211.5
2014-Dec-19 10:21N 40°30' W 029°09'1211.9
2014-Dec-19 09:21N 40°32' W 029°24'4311.0
2014-Dec-19 05:28N 40°43' W 030°19'  
2014-Dec-10 21:32N 46°32' W 072°12'1211.8
2014-Dec-10 20:33N 46°24' W 072°24'1010.1
2014-Dec-10 19:33N 46°17' W 072°36'1110.8
2014-Dec-10 18:33N 46°13' W 072°50'  

Dump ship's entire track history